^^
Station Historical Data
Daily Summary for June 28, 2017 Units:  Metric    English   Both
« Previous Day
Next Day »
Daily Weekly Monthly Yearly Custom
  High: Low: Average:
Temperature: 18.3 °C 6.7 °C 10.1 °C
Dew Point: 7.7 °C -0.9 °C 4.6 °C
Humidity: 90% 32% 71%
Wind Speed: 11.1km/h 0km/h 0.5km/h
Wind Gust: 12.9km/h - -
Wind- - SSW
Pressure: 1021.9 hPa 1014.8 hPa -
Precipitation: 0 mm    
Historical Graphs
 
 
Tabular Data for June 28, 2017
Time Temperature Dew Point Pressure Wind Wind Speed Wind Gust Humidity Rainfall Rate (Hourly) solar Conditions
00:29 11 °C 6.3 °C 1014.8 hPa Calm     73% 0 mm 0.0 W/m2
00:34 10.8 °C 6.4 °C 1014.8 hPa SSW 1.4 km/h 3.2 km/h 74% 0 mm 0.0 W/m2
00:44 10.2 °C 6 °C 1014.8 hPa SSW 3.2 km/h 4.8 km/h 75% 0 mm 0.0 W/m2
00:54 9.8 °C 6 °C 1015.1 hPa SSW 3.2 km/h 6.4 km/h 77% 0 mm 0.0 W/m2
01:09 9.6 °C 6 °C 1015.1 hPa SSW 3.2 km/h 3.2 km/h 78% 0 mm 0.0 W/m2
01:14 9.4 °C 5.8 °C 1015.1 hPa SSW 4.7 km/h 4.8 km/h 78% 0 mm 0.0 W/m2
01:24 9.3 °C 6 °C 1015.5 hPa Calm     80% 0 mm 0.0 W/m2
01:39 9.3 °C 6 °C 1015.5 hPa Calm     80% 0 mm 0.0 W/m2
01:44 9.3 °C 6 °C 1015.8 hPa Calm     80% 0 mm 0.0 W/m2
01:50 9.2 °C 5.9 °C 1015.8 hPa Calm     80% 0 mm 0.0 W/m2
01:55 9.2 °C 5.9 °C 1015.8 hPa Calm     80% 0 mm 0.0 W/m2
02:00 9 °C 5.7 °C 1015.8 hPa Calm     80% 0 mm 0.0 W/m2
02:05 8.8 °C 5.5 °C 1016.1 hPa Calm     80% 0 mm 0.0 W/m2
02:15 8.6 °C 5.3 °C 1016.1 hPa Calm     80% 0 mm 0.0 W/m2
02:20 8.3 °C 5.1 °C 1016.5 hPa Calm     80% 0 mm 0.0 W/m2
02:25 8.1 °C 4.9 °C 1016.5 hPa Calm     80% 0 mm 0.0 W/m2
02:35 7.9 °C 4.8 °C 1016.5 hPa Calm     81% 0 mm 0.0 W/m2
02:40 7.8 °C 4.7 °C 1016.5 hPa Calm     81% 0 mm 0.0 W/m2
02:50 7.7 °C 5 °C 1016.5 hPa Calm     83% 0 mm 0.0 W/m2
02:55 7.7 °C 5.2 °C 1016.8 hPa Calm     84% 0 mm 0.0 W/m2
03:00 7.6 °C 4.9 °C 1016.8 hPa Calm     83% 0 mm 0.0 W/m2
03:05 7.7 °C 5.3 °C 1016.8 hPa Calm     85% 0 mm 0.0 W/m2
03:15 7.9 °C 5.9 °C 1017.2 hPa Calm     87% 0 mm 0.0 W/m2
03:31 8.7 °C 6.8 °C 1017.2 hPa SSW 1.4 km/h 8 km/h 88% 0 mm 0.0 W/m2
03:36 9.1 °C 7.1 °C 1017.2 hPa SSW 6.4 km/h 11.3 km/h 87% 0 mm 0.0 W/m2
03:41 9.3 °C 7.1 °C 1017.5 hPa SSW 3.2 km/h 4.8 km/h 86% 0 mm 0.0 W/m2
03:46 9.3 °C 7.1 °C 1017.5 hPa SSW 3.2 km/h 3.2 km/h 86% 0 mm 0.0 W/m2
03:51 9.2 °C 7 °C 1017.5 hPa SSW 1.4 km/h 6.4 km/h 86% 0 mm 0.0 W/m2
03:56 9.2 °C 7 °C 1017.5 hPa SSW 1.4 km/h 3.2 km/h 86% 0 mm 0.0 W/m2
04:01 9.1 °C 6.7 °C 1017.5 hPa Calm     85% 0 mm 0.0 W/m2
04:11 8.9 °C 6.7 °C 1017.2 hPa Calm     86% 0 mm 0.0 W/m2
04:21 8.9 °C 6.7 °C 1017.2 hPa Calm     86% 0 mm 0.0 W/m2
04:27 8.7 °C 6.5 °C 1017.5 hPa Calm     86% 0 mm 0.0 W/m2
04:32 8.6 °C 6.4 °C 1017.5 hPa Calm     86% 0 mm 0.0 W/m2
04:37 8.4 °C 6.2 °C 1017.5 hPa Calm     86% 0 mm 0.0 W/m2
04:42 8.1 °C 5.7 °C 1017.5 hPa Calm     85% 0 mm 0.0 W/m2
04:52 7.7 °C 5.5 °C 1017.5 hPa Calm     86% 0 mm 0.0 W/m2
05:07 7.5 °C 5.5 °C 1017.8 hPa Calm     87% 0 mm 0.0 W/m2
05:17 7.2 °C 5.2 °C 1018.2 hPa Calm   1.6 km/h 87% 0 mm 0.0 W/m2
05:23 7.2 °C 5.3 °C 1018.2 hPa Calm     88% 0 mm 0.0 W/m2
05:28 7.2 °C 5.3 °C 1018.2 hPa Calm     88% 0 mm 0.0 W/m2
05:33 7.1 °C 5.2 °C 1018.5 hPa Calm     88% 0 mm 0.0 W/m2
05:43 6.9 °C 5.1 °C 1018.5 hPa Calm     88% 0 mm 0.0 W/m2
05:48 6.8 °C 5 °C 1018.8 hPa Calm     88% 0 mm 0.0 W/m2
05:53 6.8 °C 5.1 °C 1018.8 hPa Calm     89% 0 mm 0.0 W/m2
05:58 6.8 °C 5 °C 1018.8 hPa Calm     88% 0 mm 0.0 W/m2
06:03 6.7 °C 4.9 °C 1018.8 hPa SSW 1.4 km/h 3.2 km/h 88% 0 mm 0.0 W/m2
06:10 6.7 °C 5 °C 1018.8 hPa SSW 1.4 km/h 1.6 km/h 89% 0 mm 0.0 W/m2
06:28 6.8 °C 5.1 °C 1019.2 hPa Calm   4.8 km/h 89% 0 mm 0.0 W/m2
06:39 6.9 °C 5.2 °C 1019.5 hPa SSW 3.2 km/h 6.4 km/h 89% 0 mm 0.0 W/m2
06:48 7.4 °C 5.5 °C 1019.5 hPa Calm     88% 0 mm 7.0 W/m2
07:03 7.3 °C 5.6 °C 1019.5 hPa Calm     89% 0 mm 19.0 W/m2
07:13 7.4 °C 5.7 °C 1019.9 hPa Calm     89% 0 mm 28.0 W/m2
07:23 7.3 °C 5.4 °C 1019.9 hPa Calm     88% 0 mm 46.0 W/m2
07:33 7.6 °C 6.1 °C 1019.9 hPa Calm     90% 0 mm 90.0 W/m2
07:44 8.2 °C 6.3 °C 1020.2 hPa Calm     88% 0 mm 123.0 W/m2
07:49 8.4 °C 6.5 °C 1019.9 hPa Calm     88% 0 mm 144.0 W/m2
07:59 9.3 °C 6.9 °C 1020.2 hPa Calm   6.4 km/h 85% 0 mm 183.0 W/m2
08:09 9.9 °C 6.8 °C 1020.5 hPa Calm     81% 0 mm 213.0 W/m2
08:15 10.1 °C 6.8 °C 1020.5 hPa Calm     80% 0 mm 220.0 W/m2
08:20 10.4 °C 6.9 °C 1020.5 hPa Calm     79% 0 mm 241.0 W/m2
08:40 11.7 °C 7.4 °C 1020.9 hPa Calm     75% 0 mm 299.0 W/m2
08:45 11.8 °C 7.3 °C 1021.2 hPa Calm     74% 0 mm 299.0 W/m2
08:50 12.2 °C 7.5 °C 1021.2 hPa Calm     73% 0 mm 322.0 W/m2
08:55 12.6 °C 7.7 °C 1021.2 hPa Calm     72% 0 mm 336.0 W/m2
09:06 12.8 °C 7.7 °C 1021.6 hPa Calm     71% 0 mm 364.0 W/m2
09:16 13 °C 7.4 °C 1021.6 hPa Calm     69% 0 mm 380.0 W/m2
09:21 12.9 °C 7.3 °C 1021.6 hPa Calm     69% 0 mm 316.0 W/m2
09:28 12.9 °C 7.3 °C 1021.6 hPa Calm     69% 0 mm 301.0 W/m2
09:32 12.9 °C 7.3 °C 1021.6 hPa Calm     69% 0 mm 227.0 W/m2
09:45 12.9 °C 7.1 °C 1021.9 hPa SSW 11.1 km/h 12.9 km/h 68% 0 mm 237.0 W/m2
09:56 13 °C 7 °C 1021.9 hPa SSW 4.7 km/h 9.7 km/h 67% 0 mm 258.0 W/m2
10:10 13.6 °C 7.1 °C 1021.6 hPa Calm     65% 0 mm 497.0 W/m2
10:15 13.7 °C 7.2 °C 1021.9 hPa Calm     65% 0 mm 508.0 W/m2
15:24 18.3 °C 1.3 °C 1019.9 hPa Calm     32% 0 mm 262.0 W/m2
16:11 18.3 °C 2.6 °C 1019.9 hPa Calm     35% 0 mm 113.0 W/m2
16:27 18.1 °C 2.4 °C 1019.9 hPa Calm     35% 0 mm 65.0 W/m2
16:39 17.8 °C 2.5 °C 1019.9 hPa Calm     36% 0 mm 30.0 W/m2
16:50 17.5 °C 1.9 °C 1020.2 hPa Calm     35% 0 mm 14.0 W/m2
17:05 17 °C 1.4 °C 1020.2 hPa Calm     35% 0 mm 5.0 W/m2
17:16 16.6 °C 1.1 °C 1020.2 hPa Calm     35% 0 mm 0.0 W/m2
17:27 16 °C 0.9 °C 1020.5 hPa Calm     36% 0 mm 0.0 W/m2
17:38 15.6 °C 0.6 °C 1020.5 hPa Calm     36% 0 mm 0.0 W/m2
18:26 13.1 °C -0.9 °C 1021.2 hPa Calm     38% 0 mm 0.0 W/m2
18:57 13.1 °C 0.5 °C 1021.2 hPa Calm     42% 0 mm 0.0 W/m2
19:58 12.6 °C 2.4 °C 1020.9 hPa Calm     50% 0 mm 0.0 W/m2
20:59 11.2 °C 2.5 °C 1021.2 hPa Calm     55% 0 mm 0.0 W/m2
21:20 10.9 °C 1.7 °C 1021.2 hPa Calm     53% 0 mm 0.0 W/m2
21:33 10.1 °C 1.5 °C 1021.6 hPa Calm     55% 0 mm 0.0 W/m2
21:41 9.7 °C 1.6 °C 1021.6 hPa Calm     57% 0 mm 0.0 W/m2
21:47 9.6 °C 1.5 °C 1021.6 hPa Calm     57% 0 mm 0.0 W/m2
21:52 9.5 °C 1.6 °C 1021.6 hPa Calm     58% 0 mm 0.0 W/m2
21:57 9.5 °C 1.9 °C 1021.6 hPa Calm     59% 0 mm 0.0 W/m2
22:02 9.6 °C 1.7 °C 1021.6 hPa Calm     58% 0 mm 0.0 W/m2
22:08 9.8 °C 1.9 °C 1021.2 hPa Calm     58% 0 mm 0.0 W/m2
22:13 9.8 °C 1.9 °C 1021.2 hPa Calm     58% 0 mm 0.0 W/m2
22:18 9.8 °C 1.7 °C 1021.2 hPa Calm     57% 0 mm 0.0 W/m2
22:23 9.8 °C 1.9 °C 1021.2 hPa Calm     58% 0 mm 0.0 W/m2
22:33 10.2 °C 1.8 °C 1021.2 hPa Calm     56% 0 mm 0.0 W/m2
22:49 9.9 °C 1.5 °C 1021.2 hPa Calm     56% 0 mm 0.0 W/m2
22:59 9.7 °C 1.6 °C 1021.6 hPa Calm     57% 0 mm 0.0 W/m2
23:04 9.6 °C 1.5 °C 1021.2 hPa Calm     57% 0 mm 0.0 W/m2
23:09 9.7 °C 1.6 °C 1021.2 hPa Calm     57% 0 mm 0.0 W/m2
23:14 9.6 °C 1.5 °C 1021.2 hPa Calm     57% 0 mm 0.0 W/m2
23:19 9.7 °C 1.6 °C 1021.2 hPa Calm     57% 0 mm 0.0 W/m2
23:24 9.7 °C 1.6 °C 1021.2 hPa Calm     57% 0 mm 0.0 W/m2
23:30 9.9 °C 1.5 °C 1021.2 hPa Calm     56% 0 mm 0.0 W/m2
23:35 10.1 °C 1.7 °C 1021.2 hPa Calm     56% 0 mm 0.0 W/m2
23:40 10.1 °C 1.5 °C 1021.2 hPa Calm     55% 0 mm 0.0 W/m2
23:45 10.3 °C 1.7 °C 1021.2 hPa Calm     55% 0 mm 0.0 W/m2
23:51 10.4 °C 1.7 °C 1021.2 hPa Calm     55% 0 mm 0.0 W/m2
23:56 10.7 °C 1.8 °C 1021.2 hPa Calm     54% 0 mm 0.0 W/m2
Canyon Roadhouse, Fishriver Canyon, Namibia
Compliments of Weather Underground - 2.25 mb